Time;durP1;ratioP1;P1;durP2;ratioP2;P2;SDS_P1;SDS_P2;PMS_P1;PMS_P2;Temp;Humidity;BMP_temperature;BMP_pressure;BME280_temperature;BME280_humidity;BME280_pressure;Samples;Min_cycle;Max_cycle;Signal;HPM_P1;HPM_P2
2021/04/18 00:00:36;;;;;;;11.85;5.63;;;5.20;99.90;;;;;;5038675;28;20022;-87
2021/04/18 00:03:04;;;;;;;11.43;4.80;;;5.20;99.90;;;;;;5038450;28;20026;-86
2021/04/18 00:05:32;;;;;;;10.10;5.10;;;5.20;99.90;;;;;;5038226;28;20380;-87
2021/04/18 00:08:03;;;;;;;9.13;4.97;;;5.10;99.90;;;;;;5020692;28;20025;-87
2021/04/18 00:10:32;;;;;;;9.73;5.20;;;5.00;99.90;;;;;;5020819;28;20376;-87
2021/04/18 00:13:00;;;;;;;11.55;4.95;;;4.90;99.90;;;;;;5020415;28;20330;-86
2021/04/18 00:15:28;;;;;;;9.32;4.88;;;4.90;99.90;;;;;;5037138;28;20426;-87
2021/04/18 00:17:56;;;;;;;7.88;4.25;;;4.80;99.90;;;;;;5019724;28;20072;-87
2021/04/18 00:20:24;;;;;;;8.60;4.40;;;4.70;99.90;;;;;;5037185;28;20421;-87
2021/04/18 00:22:51;;;;;;;12.23;5.78;;;4.60;99.90;;;;;;5019812;28;20055;-87
2021/04/18 00:25:23;;;;;;;10.85;4.88;;;4.50;99.90;;;;;;5019564;28;20022;-87
2021/04/18 00:27:50;;;;;;;17.35;5.10;;;4.40;99.90;;;;;;5037515;28;20032;-87
2021/04/18 00:30:21;;;;;;;9.70;4.55;;;4.30;99.90;;;;;;5037147;28;20025;-88
2021/04/18 00:32:50;;;;;;;14.68;5.75;;;4.20;99.90;;;;;;5037194;28;20322;-88
2021/04/18 00:35:19;;;;;;;11.75;5.68;;;4.10;99.90;;;;;;5037699;28;20029;-88
2021/04/18 00:37:48;;;;;;;11.48;5.88;;;3.90;99.90;;;;;;5020499;28;20128;-88
2021/04/18 00:40:21;;;;;;;9.52;5.13;;;3.90;99.90;;;;;;5019568;28;20048;-88
2021/04/18 00:42:49;;;;;;;11.55;5.25;;;3.90;99.90;;;;;;5020377;28;20021;-88
2021/04/18 00:45:19;;;;;;;11.70;5.78;;;3.80;99.90;;;;;;5037975;28;20029;-87
2021/04/18 00:47:53;;;;;;;14.38;6.05;;;3.90;99.90;;;;;;5020342;28;20059;-87
2021/04/18 00:50:26;;;;;;;11.10;5.68;;;3.90;99.90;;;;;;5020250;28;20025;-87
2021/04/18 00:52:54;;;;;;;11.27;5.28;;;3.90;99.90;;;;;;5020680;28;20033;-87
2021/04/18 00:55:33;;;;;;;13.57;5.22;;;3.90;99.90;;;;;;5019357;28;20029;-87
2021/04/18 00:58:01;;;;;;;9.68;4.90;;;3.80;99.90;;;;;;5019220;28;20021;-87
2021/04/18 01:00:29;;;;;;;12.93;5.40;;;3.80;99.90;;;;;;5036430;28;20041;-87
2021/04/18 01:02:57;;;;;;;10.65;6.55;;;3.80;99.90;;;;;;5036821;28;20096;-86
2021/04/18 01:05:25;;;;;;;17.67;6.00;;;3.70;99.90;;;;;;5019169;28;20026;-86
2021/04/18 01:07:53;;;;;;;12.82;6.38;;;3.70;99.90;;;;;;5037153;28;20052;-86
2021/04/18 01:10:22;;;;;;;14.20;6.72;;;3.60;99.90;;;;;;5036523;28;20060;-87
2021/04/18 01:12:50;;;;;;;13.35;6.18;;;3.60;99.90;;;;;;5019130;28;20026;-87
2021/04/18 01:15:18;;;;;;;13.60;5.22;;;3.70;99.90;;;;;;5019226;28;20302;-87
2021/04/18 01:17:46;;;;;;;11.20;4.75;;;3.70;99.90;;;;;;5037235;28;20024;-86
2021/04/18 01:20:18;;;;;;;10.70;5.05;;;3.70;99.90;;;;;;5019734;28;20053;-86
2021/04/18 01:22:46;;;;;;;10.98;4.90;;;3.60;99.90;;;;;;5019863;28;20026;-87
2021/04/18 01:25:15;;;;;;;19.92;8.13;;;3.50;99.90;;;;;;5020067;28;20108;-87
2021/04/18 01:27:45;;;;;;;7.55;4.28;;;3.40;99.90;;;;;;5037080;28;20487;-86
2021/04/18 01:30:29;;;;;;;12.32;6.07;;;3.30;99.90;;;;;;5019689;28;20065;-86
2021/04/18 01:32:59;;;;;;;10.65;4.95;;;3.20;99.90;;;;;;5037220;28;20445;-86
2021/04/18 01:35:27;;;;;;;13.52;5.57;;;3.10;99.90;;;;;;5019337;28;20025;-86
2021/04/18 01:37:55;;;;;;;12.32;5.65;;;3.00;99.90;;;;;;5018779;28;20329;-86
2021/04/18 01:40:25;;;;;;;10.52;5.45;;;3.00;99.90;;;;;;5018768;28;20033;-86
2021/04/18 01:42:53;;;;;;;9.02;4.97;;;2.90;99.90;;;;;;5036313;28;20028;-83
2021/04/18 01:45:20;;;;;;;11.32;5.18;;;2.90;99.90;;;;;;5036434;28;20056;-86
2021/04/18 01:47:49;;;;;;;10.32;4.97;;;2.90;99.90;;;;;;5036342;28;20429;-87
2021/04/18 01:50:19;;;;;;;11.35;4.95;;;2.90;99.90;;;;;;5036975;28;20041;-87
2021/04/18 01:52:47;;;;;;;10.90;5.68;;;2.90;99.90;;;;;;5022427;28;20083;-87
2021/04/18 01:55:16;;;;;;;11.15;5.78;;;2.90;99.90;;;;;;5022296;28;20460;-87
2021/04/18 01:57:44;;;;;;;17.73;6.43;;;2.90;99.90;;;;;;5022741;28;20116;-86
2021/04/18 02:00:13;;;;;;;14.88;6.47;;;2.90;99.90;;;;;;5040600;28;20045;-86
2021/04/18 02:02:42;;;;;;;11.30;4.97;;;2.90;99.90;;;;;;5023114;28;20032;-86
2021/04/18 02:05:10;;;;;;;12.93;5.50;;;2.90;99.90;;;;;;5040554;28;20029;-86
2021/04/18 02:07:40;;;;;;;13.60;5.85;;;2.90;99.90;;;;;;5022998;28;20025;-87
2021/04/18 02:10:09;;;;;;;12.18;5.03;;;2.90;99.90;;;;;;5023259;28;20115;-86
2021/04/18 02:12:37;;;;;;;13.68;5.82;;;2.80;99.90;;;;;;5040523;28;20422;-86
2021/04/18 02:15:06;;;;;;;12.82;6.35;;;2.80;99.90;;;;;;5040662;28;20037;-86
2021/04/18 02:17:34;;;;;;;13.43;6.13;;;2.70;99.90;;;;;;5039737;28;20014;-87
2021/04/18 02:20:07;;;;;;;11.18;5.65;;;2.80;99.90;;;;;;5021966;28;20045;-86
2021/04/18 02:22:36;;;;;;;13.75;5.95;;;2.80;99.90;;;;;;5021737;28;20028;-82
2021/04/18 02:25:04;;;;;;;9.20;4.55;;;2.80;99.90;;;;;;5039365;28;20026;-82
2021/04/18 02:27:32;;;;;;;13.85;5.93;;;2.80;99.90;;;;;;5021551;28;20029;-86
2021/04/18 02:29:59;;;;;;;11.18;4.78;;;2.90;99.90;;;;;;5021838;28;20049;-86
2021/04/18 02:32:27;;;;;;;13.02;5.38;;;2.90;99.90;;;;;;5021649;28;20036;-86
2021/04/18 02:34:55;;;;;;;15.65;5.30;;;2.90;99.90;;;;;;5021508;28;20063;-85
2021/04/18 02:37:23;;;;;;;12.07;5.47;;;3.00;99.90;;;;;;5021276;28;20033;-85
2021/04/18 02:39:50;;;;;;;11.93;5.85;;;3.00;99.90;;;;;;5039514;28;20414;-85
2021/04/18 02:42:18;;;;;;;10.15;5.10;;;3.10;99.90;;;;;;5022266;28;20036;-85
2021/04/18 02:44:46;;;;;;;10.30;5.40;;;3.20;99.90;;;;;;5039783;28;20029;-85
2021/04/18 02:47:13;;;;;;;10.45;5.45;;;3.20;99.90;;;;;;5022252;28;20048;-85
2021/04/18 02:49:41;;;;;;;9.98;5.32;;;3.30;99.90;;;;;;5022164;28;20026;-87
2021/04/18 02:52:09;;;;;;;13.43;5.45;;;3.40;99.90;;;;;;5022351;28;20022;-86
2021/04/18 02:54:37;;;;;;;11.40;5.82;;;3.40;99.90;;;;;;5022238;28;20314;-86
2021/04/18 02:57:06;;;;;;;12.85;5.55;;;3.50;99.90;;;;;;5021752;28;20052;-85
2021/04/18 02:59:33;;;;;;;10.02;5.32;;;3.50;99.90;;;;;;5038592;28;20449;-86
2021/04/18 03:02:01;;;;;;;12.00;5.68;;;3.50;99.90;;;;;;5037865;28;20084;-86
2021/04/18 03:04:29;;;;;;;12.05;4.90;;;3.60;99.90;;;;;;5020955;28;20026;-85
2021/04/18 03:06:57;;;;;;;15.77;5.88;;;3.60;99.90;;;;;;5020875;28;20072;-86
2021/04/18 03:09:25;;;;;;;9.40;4.75;;;3.70;99.90;;;;;;5020801;28;20329;-86
2021/04/18 03:11:53;;;;;;;9.55;5.72;;;3.70;99.90;;;;;;5038663;28;20029;-86
2021/04/18 03:14:21;;;;;;;10.63;5.60;;;3.70;99.90;;;;;;5038734;28;20021;-86
2021/04/18 03:16:50;;;;;;;10.38;5.25;;;3.80;99.90;;;;;;5020706;28;20025;-86
2021/04/18 03:19:18;;;;;;;12.35;5.75;;;3.80;99.90;;;;;;5020583;28;20087;-85
2021/04/18 03:21:45;;;;;;;11.90;5.90;;;3.90;99.90;;;;;;5038832;28;20033;-86
2021/04/18 03:24:13;;;;;;;13.10;5.80;;;4.00;99.90;;;;;;5039354;28;20421;-85
2021/04/18 03:26:40;;;;;;;13.32;6.35;;;4.00;99.90;;;;;;5021251;28;20026;-86
2021/04/18 03:29:07;;;;;;;14.77;7.22;;;4.10;99.90;;;;;;5039146;28;20018;-86
2021/04/18 03:31:35;;;;;;;14.65;5.38;;;4.10;99.90;;;;;;5039059;28;20056;-86
2021/04/18 03:34:03;;;;;;;10.90;5.47;;;4.10;99.90;;;;;;5039158;28;20036;-86
2021/04/18 03:36:31;;;;;;;13.30;6.97;;;4.10;99.90;;;;;;5038979;28;20317;-86
2021/04/18 03:38:59;;;;;;;11.80;5.30;;;4.20;99.90;;;;;;5039067;28;20048;-86
2021/04/18 03:41:26;;;;;;;12.70;6.13;;;4.20;99.90;;;;;;5020668;28;20028;-86
2021/04/18 03:43:54;;;;;;;12.43;5.45;;;4.30;99.90;;;;;;5038146;28;20044;-86
2021/04/18 03:46:22;;;;;;;11.88;6.13;;;4.30;99.90;;;;;;5020203;28;20052;-85
2021/04/18 03:48:49;;;;;;;11.82;5.85;;;4.30;99.90;;;;;;5020152;28;20099;-86
2021/04/18 03:51:17;;;;;;;11.23;6.10;;;4.40;99.90;;;;;;5020071;28;20060;-86
2021/04/18 03:53:45;;;;;;;13.27;5.72;;;4.40;99.90;;;;;;5037798;28;20026;-86
2021/04/18 03:56:13;;;;;;;12.32;5.75;;;4.40;99.90;;;;;;5019892;28;20034;-86
2021/04/18 03:58:40;;;;;;;11.50;5.85;;;4.50;99.90;;;;;;5016422;28;20448;-86
2021/04/18 04:01:08;;;;;;;11.70;6.40;;;4.50;99.90;;;;;;5016996;28;20307;-88
2021/04/18 04:03:37;;;;;;;15.70;7.25;;;4.50;99.90;;;;;;5017194;28;20022;-85
2021/04/18 04:06:05;;;;;;;19.90;6.82;;;4.50;99.90;;;;;;5017491;28;20422;-87
2021/04/18 04:08:33;;;;;;;14.10;5.82;;;4.50;99.90;;;;;;5017739;28;20053;-86
2021/04/18 04:11:01;;;;;;;20.10;6.30;;;4.50;99.90;;;;;;5017570;28;20026;-86
2021/04/18 04:13:29;;;;;;;10.27;5.15;;;4.60;99.90;;;;;;5018415;28;20030;-87
2021/04/18 04:15:56;;;;;;;14.07;6.32;;;4.60;99.90;;;;;;5017318;28;20026;-86
2021/04/18 04:18:25;;;;;;;17.15;7.93;;;4.60;99.90;;;;;;5017475;28;20029;-86
2021/04/18 04:20:52;;;;;;;16.58;7.03;;;4.70;99.90;;;;;;5017200;28;20449;-87
2021/04/18 04:23:20;;;;;;;13.10;7.38;;;4.70;99.90;;;;;;5016716;28;20029;-86
2021/04/18 04:25:48;;;;;;;14.63;7.20;;;4.70;99.90;;;;;;5017452;28;20056;-87
2021/04/18 04:28:16;;;;;;;12.52;6.72;;;4.80;99.90;;;;;;5016383;28;20080;-86
2021/04/18 04:30:43;;;;;;;11.10;5.97;;;4.80;99.90;;;;;;5016208;28;20373;-87
2021/04/18 04:33:11;;;;;;;15.63;7.53;;;4.90;99.90;;;;;;5017460;28;20026;-86
2021/04/18 04:35:40;;;;;;;14.35;6.47;;;4.90;99.90;;;;;;5017209;28;20053;-87
2021/04/18 04:38:11;;;;;;;15.05;6.90;;;4.90;99.90;;;;;;5016378;28;20022;-87
2021/04/18 04:40:38;;;;;;;11.90;6.40;;;4.90;99.90;;;;;;5017110;28;20022;-86
2021/04/18 04:43:06;;;;;;;13.57;7.55;;;4.90;99.90;;;;;;5015958;28;20326;-86
2021/04/18 04:45:35;;;;;;;15.57;7.88;;;4.90;99.90;;;;;;5016186;28;20030;-86
2021/04/18 04:48:02;;;;;;;13.90;6.72;;;5.00;99.90;;;;;;5016815;28;20032;-86
2021/04/18 04:50:30;;;;;;;16.17;8.40;;;5.00;99.90;;;;;;5018134;28;20068;-87
2021/04/18 04:52:57;;;;;;;14.82;7.68;;;5.00;99.90;;;;;;5017973;28;20026;-87
2021/04/18 04:55:26;;;;;;;14.80;6.68;;;5.10;99.90;;;;;;5016849;28;20314;-87
2021/04/18 04:57:53;;;;;;;15.40;7.63;;;5.10;99.90;;;;;;5018198;28;20026;-87
2021/04/18 05:00:22;;;;;;;13.88;8.10;;;5.20;99.90;;;;;;5035249;28;20118;-86
2021/04/18 05:02:49;;;;;;;16.35;6.78;;;5.20;99.90;;;;;;5037899;28;20071;-86
2021/04/18 05:05:17;;;;;;;14.88;8.27;;;5.30;99.90;;;;;;5019780;28;20048;-87
2021/04/18 05:07:47;;;;;;;16.02;8.35;;;5.30;99.90;;;;;;5018889;28;20025;-86
2021/04/18 05:10:15;;;;;;;17.05;7.30;;;5.40;99.90;;;;;;5036681;28;20371;-87
2021/04/18 05:12:43;;;;;;;21.13;9.10;;;5.50;99.90;;;;;;5019226;28;20120;-86
2021/04/18 05:15:12;;;;;;;13.57;7.18;;;5.60;99.90;;;;;;5019046;28;20030;-87
2021/04/18 05:17:40;;;;;;;17.70;7.43;;;5.70;99.90;;;;;;5019016;28;20028;-86
2021/04/18 05:20:08;;;;;;;11.80;6.65;;;5.70;99.90;;;;;;5036636;28;20018;-86
2021/04/18 05:22:36;;;;;;;12.32;7.50;;;5.70;99.90;;;;;;5019037;28;20032;-86
2021/04/18 05:25:04;;;;;;;13.98;7.28;;;5.80;99.90;;;;;;5019337;28;20025;-86
2021/04/18 05:27:31;;;;;;;19.90;7.43;;;5.80;99.90;;;;;;5040752;28;20048;-87
2021/04/18 05:29:59;;;;;;;15.63;7.18;;;5.90;99.90;;;;;;5023630;28;20029;-86
2021/04/18 05:32:33;;;;;;;12.55;6.85;;;5.90;99.90;;;;;;5041399;28;20029;-87
2021/04/18 05:35:01;;;;;;;14.73;7.10;;;6.00;99.90;;;;;;5023625;28;20083;-87
2021/04/18 05:37:30;;;;;;;13.98;8.13;;;6.10;99.90;;;;;;5023684;28;20117;-87
2021/04/18 05:39:57;;;;;;;12.77;7.03;;;6.20;99.90;;;;;;5023582;28;20375;-87
2021/04/18 05:42:26;;;;;;;13.77;7.47;;;6.20;99.90;;;;;;5023513;28;20045;-87
2021/04/18 05:44:53;;;;;;;13.23;6.50;;;6.30;99.90;;;;;;5023639;28;20026;-87
2021/04/18 05:47:22;;;;;;;14.82;7.72;;;6.40;99.90;;;;;;5022572;28;20310;-87
2021/04/18 05:49:50;;;;;;;16.42;6.45;;;6.50;99.90;;;;;;5040075;28;20075;-87
2021/04/18 05:52:17;;;;;;;16.02;6.25;;;6.60;99.90;;;;;;5022376;28;20029;-87
2021/04/18 05:54:47;;;;;;;20.30;7.50;;;6.70;99.90;;;;;;5022373;28;20029;-86
2021/04/18 05:57:15;;;;;;;11.65;6.03;;;6.80;99.90;;;;;;5040137;28;20033;-87
2021/04/18 05:59:43;;;;;;;13.57;6.65;;;6.90;99.90;;;;;;5018876;28;20052;-87
2021/04/18 06:02:11;;;;;;;13.57;5.85;;;7.00;99.90;;;;;;5020248;28;20113;-87
2021/04/18 06:04:38;;;;;;;15.90;6.18;;;7.10;99.90;;;;;;5018939;28;20026;-87
2021/04/18 06:07:07;;;;;;;12.10;5.93;;;7.20;99.90;;;;;;5020027;28;20104;-88
2021/04/18 06:09:35;;;;;;;14.73;5.85;;;7.20;99.90;;;;;;5020059;28;20107;-87
2021/04/18 06:12:03;;;;;;;10.38;5.82;;;7.30;99.90;;;;;;5021078;28;20022;-88
2021/04/18 06:14:31;;;;;;;10.48;5.70;;;7.30;99.90;;;;;;5021007;28;20101;-88
2021/04/18 06:16:59;;;;;;;18.45;6.72;;;7.30;99.90;;;;;;5019849;28;20114;-88
2021/04/18 06:19:27;;;;;;;14.10;6.53;;;7.30;99.90;;;;;;5019867;28;20117;-87
2021/04/18 06:21:58;;;;;;;16.08;6.43;;;7.30;99.90;;;;;;5019608;28;20052;-86
2021/04/18 06:24:26;;;;;;;13.65;5.60;;;7.20;99.90;;;;;;5019797;28;20029;-84
2021/04/18 06:26:54;;;;;;;14.45;5.88;;;7.10;99.90;;;;;;5020357;28;20109;-83
2021/04/18 06:29:24;;;;;;;14.68;6.72;;;7.20;99.90;;;;;;5018681;28;20033;-87
2021/04/18 06:31:51;;;;;;;10.95;6.10;;;7.20;99.90;;;;;;5018382;28;20036;-82
2021/04/18 06:34:22;;;;;;;10.77;6.07;;;7.10;99.90;;;;;;5018270;28;20037;-90
2021/04/18 06:36:53;;;;;;;15.15;6.32;;;7.10;99.90;;;;;;5017121;28;20073;-88
2021/04/18 06:39:21;;;;;;;10.50;6.38;;;7.10;99.90;;;;;;5019092;28;20318;-86
2021/04/18 06:41:56;;;;;;;10.40;5.80;;;7.10;99.90;;;;;;5018117;28;20508;-86
2021/04/18 06:44:23;;;;;;;11.07;6.05;;;7.20;99.90;;;;;;5018037;28;20117;-81
2021/04/18 06:46:51;;;;;;;12.05;5.65;;;7.20;99.90;;;;;;5019272;28;20108;-84
2021/04/18 06:49:19;;;;;;;11.48;6.38;;;7.20;99.90;;;;;;5019675;28;20140;-82
2021/04/18 06:51:47;;;;;;;11.15;5.38;;;7.30;99.90;;;;;;5019723;28;20065;-84
2021/04/18 06:54:16;;;;;;;10.93;6.68;;;7.30;99.90;;;;;;5020312;28;20053;-84
2021/04/18 06:56:43;;;;;;;11.98;6.00;;;7.30;99.90;;;;;;5018613;28;20326;-83
2021/04/18 06:59:11;;;;;;;12.40;6.40;;;7.40;99.90;;;;;;5018429;28;20416;-82
2021/04/18 07:01:39;;;;;;;11.55;5.50;;;7.40;99.90;;;;;;5019192;28;20112;-85
2021/04/18 07:04:16;;;;;;;13.15;6.15;;;7.50;99.90;;;;;;5018833;28;20026;-86
2021/04/18 07:06:55;;;;;;;13.18;5.95;;;7.50;99.90;;;;;;5019400;28;20022;-86
2021/04/18 07:09:24;;;;;;;13.90;4.95;;;7.60;99.90;;;;;;5018556;28;20114;-86
2021/04/18 07:12:02;;;;;;;15.50;5.75;;;7.60;99.90;;;;;;5018543;28;20030;-80
2021/04/18 07:14:36;;;;;;;16.27;5.60;;;7.70;99.90;;;;;;5019828;28;20041;-82
2021/04/18 07:17:10;;;;;;;12.23;5.47;;;7.80;99.90;;;;;;5017694;28;20434;-88
2021/04/18 07:19:42;;;;;;;12.73;5.40;;;7.80;99.90;;;;;;5018986;28;20402;-88
2021/04/18 07:22:11;;;;;;;11.65;5.90;;;7.90;99.90;;;;;;5018635;28;20097;-88
2021/04/18 07:24:59;;;;;;;16.60;7.00;;;8.00;99.90;;;;;;5018915;28;20414;-88
2021/04/18 07:27:45;;;;;;;8.13;5.63;;;8.10;99.90;;;;;;5018018;28;20424;-87
2021/04/18 07:30:15;;;;;;;9.98;4.70;;;8.20;99.90;;;;;;5017699;28;20053;-88
2021/04/18 07:32:44;;;;;;;13.25;5.47;;;8.20;99.90;;;;;;5018444;28;20072;-88
2021/04/18 07:35:33;;;;;;;14.43;6.32;;;8.40;99.90;;;;;;5018376;28;20076;-88
2021/04/18 07:38:23;;;;;;;14.13;5.28;;;8.50;99.90;;;;;;5018494;28;20436;-88
2021/04/18 07:40:56;;;;;;;10.15;5.55;;;8.60;99.90;;;;;;5019082;28;20021;-88
2021/04/18 07:43:24;;;;;;;16.38;5.93;;;8.70;99.90;;;;;;5018443;28;20028;-89
2021/04/18 07:45:52;;;;;;;11.98;6.03;;;8.80;99.90;;;;;;5018282;28;20022;-89
2021/04/18 07:48:21;;;;;;;16.90;6.45;;;8.90;99.80;;;;;;5018378;28;20112;-89
2021/04/18 07:50:49;;;;;;;12.35;5.20;;;9.00;99.50;;;;;;5017408;28;20072;-88
2021/04/18 07:53:18;;;;;;;10.70;4.80;;;9.10;99.20;;;;;;5017193;28;20036;-89
2021/04/18 07:55:46;;;;;;;11.05;5.40;;;9.20;99.00;;;;;;5017206;28;20131;-87
2021/04/18 07:58:14;;;;;;;11.05;5.63;;;9.30;98.70;;;;;;5018208;28;20026;-87
2021/04/18 08:00:42;;;;;;;16.98;5.88;;;9.40;98.50;;;;;;5017062;28;20346;-87
2021/04/18 08:03:14;;;;;;;10.20;4.85;;;9.40;98.20;;;;;;5016883;28;20422;-87
2021/04/18 08:05:42;;;;;;;10.00;5.18;;;9.50;97.80;;;;;;5016956;28;20121;-87
2021/04/18 08:08:14;;;;;;;10.45;6.07;;;9.50;97.30;;;;;;5017067;28;20334;-88
2021/04/18 08:10:47;;;;;;;10.55;5.70;;;9.60;97.20;;;;;;5017035;28;20041;-87
2021/04/18 08:13:25;;;;;;;13.00;5.80;;;9.70;97.10;;;;;;5017629;28;20033;-87
2021/04/18 08:15:57;;;;;;;9.55;5.43;;;9.70;97.00;;;;;;5017586;28;20053;-87
2021/04/18 08:18:46;;;;;;;14.20;5.53;;;9.80;96.90;;;;;;5017715;28;20084;-87
2021/04/18 08:21:25;;;;;;;9.85;4.95;;;9.90;96.90;;;;;;5018596;28;20022;-88
2021/04/18 08:23:54;;;;;;;11.45;5.53;;;10.10;96.80;;;;;;5017554;28;20425;-87
2021/04/18 08:26:26;;;;;;;11.43;4.93;;;10.30;96.50;;;;;;5017436;28;20041;-87
2021/04/18 08:29:07;;;;;;;8.52;4.97;;;10.40;96.10;;;;;;5018338;28;20069;-87
2021/04/18 08:31:52;;;;;;;9.20;5.38;;;10.60;95.60;;;;;;5016494;28;20022;-87
2021/04/18 08:34:31;;;;;;;12.57;4.88;;;10.80;94.90;;;;;;5016321;28;20117;-88
2021/04/18 08:37:01;;;;;;;11.73;5.75;;;11.00;94.30;;;;;;5017280;28;20068;-88
2021/04/18 08:39:39;;;;;;;10.02;5.55;;;11.20;93.70;;;;;;5016647;28;20018;-88
2021/04/18 08:42:10;;;;;;;15.68;5.18;;;11.30;93.00;;;;;;5016343;28;20022;-88
2021/04/18 08:44:38;;;;;;;11.88;5.68;;;11.40;92.40;;;;;;5016522;28;20029;-87
2021/04/18 08:47:08;;;;;;;15.45;5.53;;;11.50;92.00;;;;;;5016344;28;20022;-88
2021/04/18 08:49:45;;;;;;;9.93;5.72;;;11.60;91.70;;;;;;5016818;28;20022;-87
2021/04/18 08:52:27;;;;;;;9.77;5.82;;;11.80;91.40;;;;;;5016624;28;20022;-88
2021/04/18 08:54:57;;;;;;;11.93;5.32;;;11.90;90.90;;;;;;5016937;28;20053;-88
2021/04/18 08:57:27;;;;;;;9.90;5.70;;;12.00;90.80;;;;;;5017398;28;20022;-87
2021/04/18 09:00:00;;;;;;;12.52;5.57;;;12.10;90.30;;;;;;5016227;28;20053;-88
2021/04/18 09:02:30;;;;;;;12.93;5.65;;;12.10;90.00;;;;;;5017419;28;20377;-88
2021/04/18 09:05:04;;;;;;;15.30;8.32;;;12.00;89.50;;;;;;5018423;28;20041;-88
2021/04/18 09:07:34;;;;;;;11.38;5.57;;;11.90;89.60;;;;;;5018165;28;20029;-88
2021/04/18 09:10:10;;;;;;;9.90;5.82;;;11.80;89.80;;;;;;5017975;28;20061;-88
2021/04/18 09:12:37;;;;;;;12.55;6.00;;;11.70;90.20;;;;;;5016062;28;20025;-88
2021/04/18 09:15:07;;;;;;;10.60;5.63;;;11.60;90.50;;;;;;5016005;28;20069;-88
2021/04/18 09:17:36;;;;;;;13.82;5.22;;;11.60;90.70;;;;;;5017028;28;20018;-88
2021/04/18 09:20:07;;;;;;;12.73;5.18;;;11.70;90.50;;;;;;5016522;28;20069;-87
2021/04/18 09:22:39;;;;;;;9.95;5.47;;;11.90;90.40;;;;;;5016769;28;20022;-88
2021/04/18 09:25:12;;;;;;;12.45;5.55;;;12.00;90.00;;;;;;5016846;28;20018;-87
2021/04/18 09:27:43;;;;;;;11.05;5.82;;;12.20;89.50;;;;;;5016811;28;20030;-87
2021/04/18 09:30:13;;;;;;;13.75;5.65;;;12.40;87.90;;;;;;5015350;28;20026;-86
2021/04/18 09:32:48;;;;;;;10.90;6.13;;;12.50;87.90;;;;;;5016190;28;20113;-87
2021/04/18 09:35:21;;;;;;;13.95;5.40;;;12.60;87.60;;;;;;5017388;28;20044;-88
2021/04/18 09:38:05;;;;;;;11.77;6.47;;;12.70;86.80;;;;;;5016572;28;20057;-87
2021/04/18 09:40:35;;;;;;;12.77;5.05;;;12.70;86.50;;;;;;5016852;28;20029;-87
2021/04/18 09:43:06;;;;;;;10.65;5.18;;;12.80;86.00;;;;;;5016804;28;20029;-86
2021/04/18 09:45:37;;;;;;;10.90;5.80;;;12.90;86.00;;;;;;5016462;28;20307;-88
2021/04/18 09:48:13;;;;;;;8.65;4.85;;;13.00;85.70;;;;;;5016552;28;20030;-88
2021/04/18 09:50:41;;;;;;;;;;;13.00;85.00;;;;;;5018209;28;20022;-88
2021/04/18 09:53:35;;;;;;;9.10;5.18;;;13.10;84.30;;;;;;5016724;28;20001;-88
2021/04/18 09:56:07;;;;;;;13.50;5.75;;;13.10;83.60;;;;;;5015684;28;20037;-88
2021/04/18 09:58:38;;;;;;;8.35;5.20;;;13.10;84.30;;;;;;5018517;28;20109;-88
2021/04/18 10:01:25;;;;;;;9.23;4.70;;;13.20;84.70;;;;;;5037199;28;20052;-88
2021/04/18 10:03:52;;;;;;;;;;;13.30;82.70;;;;;;5037250;28;20022;-88
2021/04/18 10:06:22;;;;;;;10.30;5.15;;;13.40;83.00;;;;;;5037014;28;20305;-88
2021/04/18 10:09:04;;;;;;;10.40;5.30;;;13.50;82.80;;;;;;5036300;28;20025;-88
2021/04/18 10:11:32;;;;;;;8.38;4.80;;;13.50;83.00;;;;;;5020001;28;20022;-88
2021/04/18 10:14:00;;;;;;;11.88;4.65;;;13.60;82.60;;;;;;5022851;28;20030;-88
2021/04/18 10:16:38;;;;;;;9.80;4.97;;;13.70;82.60;;;;;;5023255;28;20022;-88
2021/04/18 10:19:17;;;;;;;10.75;5.15;;;13.80;82.70;;;;;;5023181;28;20017;-88
2021/04/18 10:22:06;;;;;;;8.43;4.75;;;14.00;82.70;;;;;;5024321;28;20117;-88
2021/04/18 10:24:37;;;;;;;10.38;4.53;;;14.20;81.70;;;;;;5023038;28;20492;-87
2021/04/18 10:27:07;;;;;;;10.70;5.13;;;14.40;80.80;;;;;;5040289;28;20085;-88
2021/04/18 10:29:35;;;;;;;9.95;5.10;;;14.60;81.00;;;;;;5040516;28;20022;-88
2021/04/18 10:32:04;;;;;;;8.93;5.13;;;14.80;79.40;;;;;;5022697;28;20025;-89
2021/04/18 10:34:31;;;;;;;10.02;4.82;;;15.00;78.40;;;;;;5039194;28;20074;-87
2021/04/18 10:36:59;;;;;;;8.98;4.28;;;15.10;77.40;;;;;;5021552;28;20022;-87
2021/04/18 10:39:27;;;;;;;8.55;4.35;;;15.20;76.40;;;;;;5021533;28;20302;-87
2021/04/18 10:41:55;;;;;;;8.65;4.28;;;15.30;74.60;;;;;;5021539;28;20175;-86
2021/04/18 10:44:23;;;;;;;9.35;4.30;;;15.30;75.00;;;;;;5021569;28;20044;-85
2021/04/18 10:46:55;;;;;;;7.70;4.88;;;15.40;74.80;;;;;;5042504;28;20022;-88
2021/04/18 10:49:24;;;;;;;9.88;5.13;;;15.50;75.10;;;;;;5024682;28;20029;-85
2021/04/18 10:51:52;;;;;;;10.20;4.90;;;15.60;75.20;;;;;;5023922;28;20040;-87
2021/04/18 10:54:20;;;;;;;7.57;4.40;;;15.70;72.90;;;;;;5021281;28;20029;-87
2021/04/18 10:56:49;;;;;;;10.70;4.63;;;15.80;72.80;;;;;;5039822;28;20021;-87
2021/04/18 10:59:18;;;;;;;7.80;4.95;;;15.70;73.60;;;;;;5039358;28;20124;-87
2021/04/18 11:01:46;;;;;;;11.38;4.82;;;15.70;73.10;;;;;;5021953;28;20022;-87
2021/04/18 11:04:15;;;;;;;8.38;4.72;;;15.70;73.20;;;;;;5021787;28;20321;-87
2021/04/18 11:06:43;;;;;;;7.82;4.20;;;15.70;73.10;;;;;;5039734;28;20044;-88
2021/04/18 11:09:10;;;;;;;9.52;6.07;;;15.70;73.60;;;;;;5022088;28;20040;-87
2021/04/18 11:11:39;;;;;;;7.88;4.50;;;15.80;72.90;;;;;;5022046;28;20078;-87
2021/04/18 11:14:07;;;;;;;10.07;4.75;;;16.00;72.40;;;;;;5021575;28;20025;-88
2021/04/18 11:16:36;;;;;;;10.18;4.47;;;16.20;72.20;;;;;;5038260;28;20069;-87
2021/04/18 11:19:04;;;;;;;9.18;5.30;;;16.40;71.70;;;;;;5038510;28;20021;-88
2021/04/18 11:21:31;;;;;;;9.73;4.57;;;16.70;70.70;;;;;;5020972;28;20033;-88
2021/04/18 11:24:00;;;;;;;9.10;4.82;;;16.80;69.80;;;;;;5020274;28;20037;-87
2021/04/18 11:26:28;;;;;;;8.63;5.05;;;16.90;68.80;;;;;;5020726;28;20029;-87
2021/04/18 11:28:56;;;;;;;11.20;4.63;;;17.00;68.40;;;;;;5038352;28;20017;-87
2021/04/18 11:31:25;;;;;;;9.75;5.38;;;17.00;68.70;;;;;;5038401;28;20029;-87
2021/04/18 11:33:53;;;;;;;9.65;5.05;;;17.10;68.00;;;;;;5037924;28;20037;-87
2021/04/18 11:36:21;;;;;;;14.63;5.93;;;17.10;68.50;;;;;;5020674;28;20026;-87
2021/04/18 11:38:49;;;;;;;9.18;4.60;;;17.20;69.00;;;;;;5038884;28;20022;-88
2021/04/18 11:41:17;;;;;;;10.77;4.57;;;17.20;68.00;;;;;;5021398;28;20021;-87
2021/04/18 11:43:44;;;;;;;10.43;5.18;;;17.40;67.70;;;;;;5021280;28;20059;-87
2021/04/18 11:46:12;;;;;;;11.05;4.32;;;17.50;67.50;;;;;;5021365;28;20033;-87
2021/04/18 11:48:41;;;;;;;9.20;4.95;;;17.60;66.90;;;;;;5021067;28;20033;-88
2021/04/18 11:51:09;;;;;;;15.25;5.75;;;17.60;66.90;;;;;;5021120;28;20049;-87
2021/04/18 11:53:37;;;;;;;7.68;4.60;;;17.50;66.40;;;;;;5020968;28;20029;-88
2021/04/18 11:56:06;;;;;;;9.57;4.95;;;17.50;66.40;;;;;;5021183;28;20025;-87
2021/04/18 11:58:34;;;;;;;7.25;4.28;;;17.40;66.70;;;;;;5019860;28;20022;-88
2021/04/18 12:01:02;;;;;;;8.60;5.90;;;17.30;67.10;;;;;;5021097;28;20033;-88
2021/04/18 12:03:30;;;;;;;10.52;4.85;;;17.20;67.30;;;;;;5020012;28;20021;-88
2021/04/18 12:05:58;;;;;;;9.65;4.80;;;17.10;67.60;;;;;;5021074;28;20029;-88
2021/04/18 12:08:26;;;;;;;9.52;4.78;;;17.00;68.30;;;;;;5020112;28;20033;-90
2021/04/18 12:10:53;;;;;;;10.68;5.10;;;16.80;67.80;;;;;;5020291;28;20116;-88
2021/04/18 12:13:21;;;;;;;11.55;4.68;;;16.60;68.40;;;;;;5020054;28;20418;-89
2021/04/18 12:15:49;;;;;;;12.98;5.15;;;16.50;69.20;;;;;;5020739;28;20029;-89
2021/04/18 12:18:16;;;;;;;13.75;5.18;;;16.40;69.70;;;;;;5020068;28;20413;-88
2021/04/18 12:20:44;;;;;;;9.52;5.07;;;16.40;68.90;;;;;;5021074;28;20121;-88
2021/04/18 12:23:12;;;;;;;11.70;5.88;;;16.30;69.30;;;;;;5020577;28;20033;-88
2021/04/18 12:25:40;;;;;;;13.63;4.88;;;16.20;69.50;;;;;;5021185;28;20030;-88
2021/04/18 12:28:08;;;;;;;10.40;4.93;;;16.20;70.40;;;;;;5038041;28;20044;-88
2021/04/18 12:30:37;;;;;;;11.60;4.57;;;16.20;71.00;;;;;;5020679;28;20033;-88
2021/04/18 12:33:05;;;;;;;8.77;4.82;;;16.50;70.10;;;;;;5037975;28;20029;-88
2021/04/18 12:35:35;;;;;;;9.70;4.40;;;16.70;70.20;;;;;;5020306;28;20346;-88
2021/04/18 12:38:03;;;;;;;9.40;4.65;;;16.90;68.70;;;;;;5020027;28;20125;-88
2021/04/18 12:40:31;;;;;;;9.88;4.40;;;16.90;68.30;;;;;;5019886;28;20017;-88
2021/04/18 12:42:58;;;;;;;9.18;4.38;;;16.90;68.60;;;;;;5020387;28;20018;-88
2021/04/18 12:45:26;;;;;;;10.52;4.95;;;16.90;68.50;;;;;;5019364;28;20038;-88
2021/04/18 12:47:54;;;;;;;10.13;5.13;;;16.80;68.50;;;;;;5019334;28;20377;-88
2021/04/18 12:50:21;;;;;;;9.13;4.82;;;16.80;68.90;;;;;;5019455;28;20034;-88
2021/04/18 12:52:49;;;;;;;10.00;5.38;;;16.80;68.20;;;;;;5019467;28;20056;-88
2021/04/18 12:55:17;;;;;;;9.38;4.80;;;16.80;68.80;;;;;;5019205;28;20029;-88
2021/04/18 12:57:45;;;;;;;7.70;4.80;;;16.80;67.80;;;;;;5037031;28;20410;-88